^^
MeteoGriva-Weather Station Historical Data
Daily Summary for August 11, 2020 Units:  English    Metric   Both
Daily Weekly Monthly Yearly Custom
  High: Low: Average:
Temperature: 53.8 °F 39.7 °F 46.4 °F
Dew Point: 38.1 °F 29.3 °F 34 °F
Humidity: 72.4% 52.1% 62%
Wind Speed: 0.7mph 0mph 0mph
Wind Gust: 4.9mph - -
Wind- - South
Pressure: 30.2 in 30.1 in -
Precipitation: 0 in    
Historical Graphs
 
 
Tabular Data for August 11, 2020
Time Temperature Dew Point Pressure Wind Wind Speed Wind Gust Humidity Rainfall Rate (Hourly) solar
00:04 43 °F 30.4 °F 30.2 in Calm     61% 0 in 0 W/m2
00:09 43.2 °F 30.6 °F 30.2 in Calm     61% 0 in 0 W/m2
00:14 43.2 °F 31.1 °F 30.2 in Calm     61.9% 0 in 0 W/m2
00:19 43.2 °F 31.3 °F 30.2 in Calm     62.3% 0 in 0 W/m2
00:24 43 °F 31.3 °F 30.2 in Calm     62.9% 0 in 0 W/m2
00:29 43 °F 30.9 °F 30.2 in Calm     61.9% 0 in 0 W/m2
00:34 43 °F 30.6 °F 30.2 in Calm     61.3% 0 in 0 W/m2
00:39 43 °F 30.9 °F 30.2 in Calm     62% 0 in 0 W/m2
00:44 43 °F 30.9 °F 30.2 in Calm     62% 0 in 0 W/m2
00:49 42.6 °F 30.6 °F 30.2 in Calm     62% 0 in 0 W/m2
00:54 42.6 °F 30.6 °F 30.2 in Calm     62% 0 in 0 W/m2
00:59 42.6 °F 30.2 °F 30.2 in Calm     60.9% 0 in 0 W/m2
01:04 42.8 °F 29.8 °F 30.2 in Calm     60% 0 in 0 W/m2
01:09 43.2 °F 30.4 °F 30.2 in Calm     60% 0 in 0 W/m2
01:14 43.2 °F 30.2 °F 30.2 in Calm     60.1% 0 in 0 W/m2
01:19 43.3 °F 30 °F 30.2 in Calm     59.2% 0 in 0 W/m2
01:24 43.3 °F 29.8 °F 30.2 in Calm     58.8% 0 in 0 W/m2
01:29 43.7 °F 30.6 °F 30.2 in Calm     59% 0 in 0 W/m2
01:34 43.9 °F 30.6 °F 30.2 in Calm     59% 0 in 0 W/m2
01:39 43.7 °F 30.9 °F 30.2 in Calm     60.7% 0 in 0 W/m2
01:44 43.5 °F 30.7 °F 30.2 in Calm     60.5% 0 in 0 W/m2
01:49 43.7 °F 30.7 °F 30.2 in Calm     60% 0 in 0 W/m2
01:54 43.5 °F 30.7 °F 30.2 in Calm     60.6% 0 in 0 W/m2
01:59 43.3 °F 31.8 °F 30.2 in Calm     63.3% 0 in 0 W/m2
02:04 43.2 °F 31.6 °F 30.2 in Calm     63.9% 0 in 0 W/m2
02:09 42.3 °F 30.6 °F 30.2 in Calm     63% 0 in 0 W/m2
02:14 42.1 °F 30.4 °F 30.2 in Calm     63% 0 in 0 W/m2
02:19 42.1 °F 30.4 °F 30.2 in Calm     63.1% 0 in 0 W/m2
02:24 42.1 °F 30.4 °F 30.2 in Calm     63% 0 in 0 W/m2
02:29 42.1 °F 30.4 °F 30.2 in Calm     63% 0 in 0 W/m2
02:34 42.1 °F 30.2 °F 30.2 in Calm     62.4% 0 in 0 W/m2
02:39 42.1 °F 30.2 °F 30.2 in Calm     62.5% 0 in 0 W/m2
02:44 42.1 °F 30.4 °F 30.2 in Calm     63% 0 in 0 W/m2
02:49 42.3 °F 30.2 °F 30.2 in Calm     62.4% 0 in 0 W/m2
02:54 42.3 °F 30.2 °F 30.2 in Calm     61.9% 0 in 0 W/m2
02:59 42.3 °F 30 °F 30.2 in Calm     61.6% 0 in 0 W/m2
03:04 42.3 °F 30.2 °F 30.2 in Calm     62% 0 in 0 W/m2
03:09 42.1 °F 30.2 °F 30.2 in Calm     62.1% 0 in 0 W/m2
03:14 42.1 °F 30 °F 30.2 in Calm     62% 0 in 0 W/m2
03:19 42.1 °F 30 °F 30.2 in Calm     62% 0 in 0 W/m2
03:24 42.1 °F 30.2 °F 30.2 in Calm     62.6% 0 in 0 W/m2
03:29 42.1 °F 30.2 °F 30.2 in Calm     62.6% 0 in 0 W/m2
03:34 42.3 °F 30 °F 30.2 in Calm     61.8% 0 in 0 W/m2
03:39 42.3 °F 29.3 °F 30.2 in Calm     60% 0 in 0 W/m2
03:44 42.4 °F 29.7 °F 30.2 in Calm     60.6% 0 in 0 W/m2
03:49 42.3 °F 30.2 °F 30.2 in Calm     61.7% 0 in 0 W/m2
03:54 42.3 °F 30.2 °F 30.2 in Calm     62% 0 in 0 W/m2
03:59 42.3 °F 30.7 °F 30.2 in Calm     63.3% 0 in 0 W/m2
04:04 42.1 °F 30.9 °F 30.2 in Calm     64.6% 0 in 0 W/m2
04:09 41.7 °F 30.7 °F 30.2 in Calm     64.9% 0 in 0 W/m2
04:14 41.5 °F 30.2 °F 30.2 in Calm     64% 0 in 0 W/m2
04:19 41.5 °F 30 °F 30.2 in Calm     63.2% 0 in 0 W/m2
04:24 41.7 °F 30.2 °F 30.2 in Calm     63.3% 0 in 0 W/m2
04:29 42.1 °F 30 °F 30.2 in Calm     61.6% 0 in 0 W/m2
04:34 42.4 °F 30 °F 30.2 in Calm     61.1% 0 in 0 W/m2
04:39 42.4 °F 30.4 °F 30.2 in Calm     62% 0 in 0 W/m2
04:44 42.4 °F 30.2 °F 30.2 in Calm     61.7% 0 in 0 W/m2
04:49 42.3 °F 30.2 °F 30.2 in Calm     62.1% 0 in 0 W/m2
04:54 41.9 °F 30.2 °F 30.2 in Calm     63.2% 0 in 0 W/m2
04:59 41.9 °F 30.6 °F 30.2 in Calm     64.2% 0 in 0 W/m2
05:04 41.7 °F 30.4 °F 30.2 in Calm     64.1% 0 in 0 W/m2
05:09 41.7 °F 30.2 °F 30.2 in Calm     63.6% 0 in 0 W/m2
05:14 41.5 °F 30.2 °F 30.2 in Calm     63.7% 0 in 0 W/m2
05:19 41.5 °F 30.6 °F 30.2 in Calm     64.9% 0 in 0 W/m2
05:24 41.4 °F 30.9 °F 30.2 in Calm     66% 0 in 0 W/m2
05:29 41 °F 30.6 °F 30.2 in Calm     66% 0 in 0 W/m2
05:34 40.6 °F 30.2 °F 30.2 in Calm     66.2% 0 in 0 W/m2
05:39 40.5 °F 30.4 °F 30.2 in Calm     66.9% 0 in 0 W/m2
05:44 40.5 °F 30 °F 30.2 in Calm     66% 0 in 0 W/m2
05:49 40.5 °F 30 °F 30.2 in Calm     66.1% 0 in 0 W/m2
05:54 40.5 °F 30 °F 30.2 in Calm     66% 0 in 0 W/m2
05:59 40.5 °F 30.2 °F 30.2 in Calm     66.6% 0 in 0 W/m2
06:04 40.5 °F 30.2 °F 30.2 in Calm   2.5 mph 66.6% 0 in 0 W/m2
06:09 40.6 °F 30.2 °F 30.2 in Calm     66% 0 in 0 W/m2
06:14 40.8 °F 30.2 °F 30.2 in Calm     65.7% 0 in 0 W/m2
06:19 40.8 °F 30.2 °F 30.2 in Calm     65.3% 0 in 0 W/m2
06:24 40.8 °F 30.4 °F 30.2 in Calm     66% 0 in 0 W/m2
06:29 40.8 °F 30.4 °F 30.2 in Calm     66% 0 in 0 W/m2
06:34 40.6 °F 30.2 °F 30.2 in Calm     66% 0 in 0 W/m2
06:39 40.6 °F 30.7 °F 30.2 in Calm     67.6% 0 in 0 W/m2
06:44 40.5 °F 31.1 °F 30.2 in Calm     68.9% 0 in 0 W/m2
06:49 40.5 °F 30.7 °F 30.2 in Calm     68% 0 in 0 W/m2
06:54 40.1 °F 30.6 °F 30.2 in Calm     68% 0 in 0 W/m2
06:59 40.3 °F 30.6 °F 30.2 in Calm     68% 0 in 0 W/m2
07:04 40.3 °F 30.6 °F 30.2 in Calm     68.1% 0 in 0 W/m2
07:09 40.3 °F 30.6 °F 30.2 in Calm     68% 0 in 0 W/m2
07:14 40.3 °F 30.9 °F 30.2 in Calm     69.1% 0 in 0 W/m2
07:19 40.1 °F 31.1 °F 30.2 in Calm     70% 0 in 0 W/m2
07:24 40.1 °F 31.3 °F 30.2 in Calm     70.7% 0 in 0 W/m2
07:29 39.9 °F 30.9 °F 30.2 in Calm     70% 0 in 0 W/m2
07:34 39.7 °F 30.7 °F 30.2 in Calm     70% 0 in 0 W/m2
07:39 39.9 °F 30.7 °F 30.2 in Calm     69.7% 0 in 0 W/m2
07:44 39.9 °F 30.4 °F 30.2 in Calm     68.4% 0 in 0 W/m2
07:49 40.3 °F 30.7 °F 30.2 in Calm     68.9% 0 in 0 W/m2
07:54 40.5 °F 31.5 °F 30.2 in Calm     70% 0 in 0 W/m2
07:59 40.5 °F 31.1 °F 30.2 in Calm     69.1% 0 in 2 W/m2
08:04 40.6 °F 31.6 °F 30.2 in Calm     69.9% 0 in 5 W/m2
08:09 40.8 °F 31.5 °F 30.2 in Calm     69% 0 in 10 W/m2
08:14 41.5 °F 32.4 °F 30.2 in Calm     69.4% 0 in 13 W/m2
08:19 41.5 °F 32 °F 30.2 in Calm     68.4% 0 in 14 W/m2
08:24 41.5 °F 31.6 °F 30.2 in Calm     67.6% 0 in 16 W/m2
08:29 41.7 °F 31.3 °F 30.2 in Calm     66% 0 in 31 W/m2
08:34 42.6 °F 31.6 °F 30.2 in Calm     65.2% 0 in 37 W/m2
08:39 42.6 °F 32.2 °F 30.2 in Calm     66.4% 0 in 42 W/m2
08:44 42.8 °F 31.8 °F 30.2 in Calm     65.1% 0 in 46 W/m2
08:49 43.2 °F 30.9 °F 30.2 in Calm     61.8% 0 in 49 W/m2
08:54 47.5 °F 33.3 °F 30.2 in Calm     57.4% 0 in 49 W/m2
08:59 47.5 °F 33.8 °F 30.2 in Calm     59% 0 in 46 W/m2
09:04 47.3 °F 34.5 °F 30.2 in Calm     61.1% 0 in 55 W/m2
09:09 47.1 °F 34.2 °F 30.2 in Calm     60.4% 0 in 62 W/m2
09:14 47.7 °F 33.8 °F 30.2 in Calm     58.3% 0 in 65 W/m2
09:19 47.7 °F 34 °F 30.2 in Calm     58.9% 0 in 69 W/m2
09:24 47.5 °F 33.6 °F 30.2 in Calm     58.4% 0 in 70 W/m2
09:29 48.2 °F 32 °F 30.2 in Calm     53.3% 0 in 75 W/m2
09:34 51.6 °F 34.7 °F 30.2 in Calm     52.2% 0 in 76 W/m2
09:39 51.4 °F 35.4 °F 30.2 in Calm     53.8% 0 in 76 W/m2
09:44 51.3 °F 34.7 °F 30.2 in Calm     53.1% 0 in 78 W/m2
09:49 51.3 °F 34.3 °F 30.2 in Calm     52.4% 0 in 80 W/m2
09:54 51.1 °F 34.3 °F 30.2 in Calm     52.7% 0 in 81 W/m2
09:59 51.3 °F 34.3 °F 30.2 in Calm     52.1% 0 in 81 W/m2
10:04 51.3 °F 34.9 °F 30.2 in Calm     53.2% 0 in 82 W/m2
10:09 51.4 °F 34.9 °F 30.2 in Calm   4.9 mph 53% 0 in 83 W/m2
10:14 51.6 °F 35.1 °F 30.2 in Calm     53% 0 in 84 W/m2
10:19 51.6 °F 34.9 °F 30.2 in Calm     52.7% 0 in 85 W/m2
10:24 51.8 °F 35.1 °F 30.2 in Calm     52.8% 0 in 85 W/m2
10:29 51.8 °F 35.2 °F 30.2 in Calm     53% 0 in 87 W/m2
10:34 52.2 °F 35.8 °F 30.2 in Calm     53.6% 0 in 86 W/m2
10:39 52.2 °F 36.1 °F 30.2 in Calm     54.4% 0 in 87 W/m2
10:44 52.2 °F 36.1 °F 30.2 in Calm     54.1% 0 in 88 W/m2
10:49 52.3 °F 36 °F 30.2 in Calm     53.4% 0 in 90 W/m2
10:54 52.7 °F 36.3 °F 30.2 in Calm     53.6% 0 in 90 W/m2
10:59 52.7 °F 36.5 °F 30.2 in Calm     54% 0 in 93 W/m2
11:04 52.5 °F 37 °F 30.2 in South 0.4 mph 4.9 mph 55.3% 0 in 95 W/m2
11:09 52.5 °F 36.9 °F 30.2 in Calm     55% 0 in 101 W/m2
11:14 52.3 °F 36.7 °F 30.2 in Calm     54.9% 0 in 108 W/m2
11:19 52.3 °F 36.5 °F 30.2 in Calm     54.7% 0 in 116 W/m2
11:24 52.3 °F 36.5 °F 30.2 in Calm     54.6% 0 in 118 W/m2
11:29 52.5 °F 36.9 °F 30.2 in Calm     55% 0 in 139 W/m2
11:34 52.5 °F 36.9 °F 30.2 in Calm     55% 0 in 150 W/m2
11:39 52.5 °F 36.9 °F 30.2 in Calm     55.4% 0 in 131 W/m2
11:44 52.3 °F 37.2 °F 30.2 in Calm     56.3% 0 in 128 W/m2
11:49 52 °F 37.8 °F 30.2 in Calm   2.5 mph 58% 0 in 141 W/m2
11:54 50.7 °F 36.7 °F 30.2 in Calm     58.4% 0 in 149 W/m2
11:59 50.4 °F 36.5 °F 30.2 in Calm     58.8% 0 in 138 W/m2
12:04 50.4 °F 36.5 °F 30.2 in Calm     59% 0 in 139 W/m2
12:09 50.4 °F 36.3 °F 30.2 in Calm     58.3% 0 in 139 W/m2
12:14 51.1 °F 36.5 °F 30.2 in Calm     57.7% 0 in 143 W/m2
12:19 51.3 °F 36.9 °F 30.2 in Calm     57.7% 0 in 139 W/m2
12:24 51.3 °F 36.3 °F 30.2 in Calm     56.6% 0 in 200 W/m2
12:29 51.4 °F 36.5 °F 30.2 in Calm     56.3% 0 in 235 W/m2
12:34 51.8 °F 37 °F 30.2 in Calm     56.8% 0 in 244 W/m2
12:39 52 °F 36.9 °F 30.2 in Calm     56% 0 in 162 W/m2
12:44 52 °F 36.5 °F 30.2 in Calm     55.3% 0 in 154 W/m2
12:49 52.2 °F 36.7 °F 30.2 in Calm     55.4% 0 in 270 W/m2
12:54 53.6 °F 37.2 °F 30.2 in Calm     54% 0 in 266 W/m2
12:59 53.8 °F 37.8 °F 30.2 in Calm     54.9% 0 in 159 W/m2
13:04 53.6 °F 37.4 °F 30.2 in Calm     54.1% 0 in 150 W/m2
13:09 53.4 °F 37.2 °F 30.2 in Calm   2.5 mph 54% 0 in 136 W/m2
13:14 52.5 °F 36.7 °F 30.1 in Calm   2.5 mph 54.9% 0 in 152 W/m2
13:19 52 °F 36 °F 30.1 in Calm     54.4% 0 in 169 W/m2
13:24 52 °F 35.8 °F 30.1 in Calm   2.5 mph 54.1% 0 in 205 W/m2
13:29 52.2 °F 35.6 °F 30.1 in Calm   2.5 mph 53.2% 0 in 184 W/m2
13:34 52.7 °F 36.1 °F 30.1 in Calm     53.1% 0 in 147 W/m2
13:39 53.1 °F 36.7 °F 30.1 in Calm   2.5 mph 53.7% 0 in 152 W/m2
13:44 53.1 °F 36.9 °F 30.1 in Calm     54% 0 in 141 W/m2
13:49 53.1 °F 36.9 °F 30.1 in SE 0.2 mph 4.9 mph 54.1% 0 in 116 W/m2
13:54 52.3 °F 36.5 °F 30.1 in Calm   2.5 mph 54.4% 0 in 117 W/m2
13:59 52 °F 36.3 °F 30.1 in Calm     54.9% 0 in 121 W/m2
14:04 52 °F 36.3 °F 30.1 in Calm   2.5 mph 55% 0 in 123 W/m2
14:09 52 °F 36.9 °F 30.1 in Calm     56% 0 in 123 W/m2
14:14 51.8 °F 36.7 °F 30.1 in Calm     56% 0 in 117 W/m2
14:19 51.6 °F 36.5 °F 30.1 in Calm   2.5 mph 56% 0 in 110 W/m2
14:24 51.8 °F 36.7 °F 30.1 in SSE 0.1 mph 2.5 mph 56% 0 in 106 W/m2
14:29 51.8 °F 36.9 °F 30.1 in Calm     56.4% 0 in 103 W/m2
14:34 51.6 °F 36.9 °F 30.1 in South 0.1 mph 2.5 mph 56.7% 0 in 98 W/m2
14:39 51.4 °F 36.5 °F 30.1 in Calm     56.3% 0 in 91 W/m2
14:44 51.4 °F 36.5 °F 30.1 in Calm     56.7% 0 in 82 W/m2
14:49 51.4 °F 36.7 °F 30.1 in Calm     56.8% 0 in 77 W/m2
14:54 51.3 °F 36.5 °F 30.1 in Calm     57% 0 in 74 W/m2
14:59 51.1 °F 36.3 °F 30.1 in Calm     57% 0 in 73 W/m2
15:04 51.1 °F 36.3 °F 30.1 in Calm     57% 0 in 68 W/m2
15:09 51.1 °F 36.3 °F 30.1 in Calm     57% 0 in 72 W/m2
15:14 51.1 °F 36.7 °F 30.1 in Calm     57.7% 0 in 73 W/m2
15:19 50.9 °F 36.7 °F 30.1 in Calm     58% 0 in 73 W/m2
15:24 50.9 °F 36.7 °F 30.1 in Calm     58% 0 in 70 W/m2
15:29 50.9 °F 36.7 °F 30.1 in Calm     58% 0 in 63 W/m2
15:34 50.7 °F 36.7 °F 30.1 in Calm     58.3% 0 in 57 W/m2
15:39 50.5 °F 36.7 °F 30.1 in Calm     58.7% 0 in 52 W/m2
15:44 50.5 °F 36.3 °F 30.1 in Calm     57.9% 0 in 46 W/m2
15:49 50.5 °F 36 °F 30.1 in Calm     56.9% 0 in 43 W/m2
15:54 50.4 °F 35.2 °F 30.1 in Calm     55.8% 0 in 39 W/m2
15:59 50 °F 34.7 °F 30.1 in Calm     55.3% 0 in 37 W/m2
16:04 50 °F 34.5 °F 30.1 in Calm     55% 0 in 34 W/m2
16:09 50 °F 34.2 °F 30.1 in Calm     54.3% 0 in 31 W/m2
16:14 50 °F 34.3 °F 30.1 in Calm     54.9% 0 in 28 W/m2
16:19 49.6 °F 35.4 °F 30.1 in Calm     57.8% 0 in 25 W/m2
16:24 49.6 °F 36 °F 30.1 in Calm     59% 0 in 20 W/m2
16:29 49.6 °F 36 °F 30.1 in Calm     59% 0 in 18 W/m2
16:34 49.5 °F 35.8 °F 30.1 in Calm     59% 0 in 17 W/m2
16:39 49.1 °F 35.8 °F 30.1 in Calm     59.6% 0 in 14 W/m2
16:44 49.1 °F 36 °F 30.1 in Calm     60.2% 0 in 12 W/m2
16:49 49.1 °F 36.3 °F 30.1 in Calm     61.1% 0 in 9 W/m2
16:54 49.1 °F 36.7 °F 30.1 in Calm     62% 0 in 6 W/m2
16:59 48.7 °F 36.7 °F 30.1 in Calm     62.8% 0 in 4 W/m2
17:04 48.6 °F 36.5 °F 30.1 in Calm     62.9% 0 in 2 W/m2
17:09 48.6 °F 36 °F 30.1 in Calm     61.8% 0 in 0 W/m2
17:14 48.6 °F 36.1 °F 30.1 in Calm     62.3% 0 in 0 W/m2
17:19 48.2 °F 36.5 °F 30.1 in Calm     63.7% 0 in 0 W/m2
17:24 48.2 °F 36.1 °F 30.1 in Calm     63% 0 in 0 W/m2
17:29 48.2 °F 36.1 °F 30.1 in Calm     63% 0 in 0 W/m2
17:34 48.2 °F 36.3 °F 30.1 in Calm     63.3% 0 in 0 W/m2
17:39 47.8 °F 36 °F 30.1 in Calm     63.6% 0 in 0 W/m2
17:44 47.7 °F 35.6 °F 30.1 in Calm     63% 0 in 0 W/m2
17:49 47.8 °F 35.8 °F 30.1 in Calm     63% 0 in 0 W/m2
17:54 47.8 °F 36.1 °F 30.1 in Calm     63.7% 0 in 0 W/m2
17:59 47.7 °F 36 °F 30.1 in Calm     63.9% 0 in 0 W/m2
18:04 47.7 °F 36.1 °F 30.1 in Calm     64% 0 in 0 W/m2
18:09 47.7 °F 36.5 °F 30.1 in Calm     64.8% 0 in 0 W/m2
18:14 47.7 °F 36.5 °F 30.1 in Calm     65% 0 in 0 W/m2
18:19 47.5 °F 36.1 °F 30.1 in Calm     64.6% 0 in 0 W/m2
18:24 47.5 °F 36.1 °F 30.1 in Calm     64.6% 0 in 0 W/m2
18:29 47.5 °F 35.8 °F 30.1 in Calm     63.3% 0 in 0 W/m2
18:34 47.5 °F 36 °F 30.2 in Calm     63.8% 0 in 0 W/m2
18:39 47.5 °F 36.1 °F 30.2 in Calm     64.3% 0 in 0 W/m2
18:44 47.5 °F 36.7 °F 30.2 in Calm     66.1% 0 in 0 W/m2
18:49 47.5 °F 36.3 °F 30.2 in Calm     65.1% 0 in 0 W/m2
18:54 47.5 °F 36 °F 30.2 in Calm     64% 0 in 0 W/m2
18:59 47.5 °F 36 °F 30.2 in Calm     64% 0 in 0 W/m2
19:04 47.3 °F 35.6 °F 30.2 in Calm     63.6% 0 in 0 W/m2
19:09 47.3 °F 35.4 °F 30.2 in Calm     63.2% 0 in 0 W/m2
19:14 47.3 °F 35.4 °F 30.2 in Calm     63% 0 in 0 W/m2
19:19 47.1 °F 35.2 °F 30.2 in Calm     63% 0 in 0 W/m2
19:24 46.9 °F 34.9 °F 30.2 in Calm     62.6% 0 in 0 W/m2
19:29 47.1 °F 34.3 °F 30.2 in Calm     61.2% 0 in 0 W/m2
19:34 47.1 °F 34.7 °F 30.2 in Calm     61.8% 0 in 0 W/m2
19:39 47.3 °F 35.2 °F 30.2 in Calm     62.8% 0 in 0 W/m2
19:44 47.3 °F 35.2 °F 30.2 in Calm     62.7% 0 in 0 W/m2
19:49 47.1 °F 35.4 °F 30.2 in Calm     63.6% 0 in 0 W/m2
19:54 47.1 °F 35.6 °F 30.2 in Calm     64% 0 in 0 W/m2
19:59 47.1 °F 35.4 °F 30.2 in Calm     63.7% 0 in 0 W/m2
20:04 46.9 °F 35.2 °F 30.2 in Calm     63.7% 0 in 0 W/m2
20:09 46.9 °F 35.1 °F 30.2 in Calm     62.8% 0 in 0 W/m2
20:14 46.9 °F 34.9 °F 30.2 in Calm     62.8% 0 in 0 W/m2
20:19 46.8 °F 35.2 °F 30.2 in Calm     64.4% 0 in 0 W/m2
20:24 46.6 °F 35.1 °F 30.2 in Calm     63.9% 0 in 0 W/m2
20:29 46.6 °F 35.1 °F 30.2 in Calm     63.8% 0 in 0 W/m2
20:34 46.6 °F 34.7 °F 30.2 in Calm     63.1% 0 in 0 W/m2
20:39 46.2 °F 35.2 °F 30.2 in Calm     65.3% 0 in 0 W/m2
20:44 46.2 °F 34.5 °F 30.2 in Calm     63.4% 0 in 0 W/m2
20:49 46.2 °F 34.7 °F 30.2 in Calm     64% 0 in 0 W/m2
20:54 46.2 °F 34.7 °F 30.2 in Calm     64.2% 0 in 0 W/m2
20:59 46 °F 34.7 °F 30.2 in Calm     64.4% 0 in 0 W/m2
21:04 46 °F 34.9 °F 30.2 in Calm     65.2% 0 in 0 W/m2
21:09 46 °F 35.2 °F 30.2 in Calm     66% 0 in 0 W/m2
21:14 46 °F 35.1 °F 30.2 in Calm     65.7% 0 in 0 W/m2
21:19 45.9 °F 35.1 °F 30.2 in Calm     65.7% 0 in 0 W/m2
21:24 45.9 °F 35.1 °F 30.2 in Calm     65.8% 0 in 0 W/m2
21:29 45.9 °F 35.1 °F 30.2 in Calm     65.8% 0 in 0 W/m2
21:34 45.9 °F 35.2 °F 30.2 in Calm     66.2% 0 in 0 W/m2
21:39 46 °F 35.2 °F 30.2 in Calm     66% 0 in 0 W/m2
21:44 46 °F 34.9 °F 30.2 in Calm     65.1% 0 in 0 W/m2
21:49 46 °F 34.9 °F 30.2 in Calm     65.1% 0 in 0 W/m2
21:54 46 °F 35.6 °F 30.2 in Calm     66.6% 0 in 0 W/m2
21:59 46 °F 35.2 °F 30.2 in Calm     66% 0 in 0 W/m2
22:04 46 °F 35.2 °F 30.2 in Calm     66% 0 in 0 W/m2
22:09 46 °F 35.1 °F 30.2 in Calm     65.1% 0 in 0 W/m2
22:14 46.2 °F 34.9 °F 30.2 in Calm     64.6% 0 in 0 W/m2
22:19 46.2 °F 34.7 °F 30.2 in Calm     64.1% 0 in 0 W/m2
22:24 46.4 °F 35.1 °F 30.2 in Calm     64.7% 0 in 0 W/m2
22:29 46.4 °F 35.2 °F 30.2 in Calm     65.2% 0 in 0 W/m2
22:34 46.4 °F 35.6 °F 30.2 in Calm     66% 0 in 0 W/m2
22:39 46.4 °F 35.6 °F 30.2 in Calm     66% 0 in 0 W/m2
22:44 46.4 °F 35.6 °F 30.2 in Calm     66% 0 in 0 W/m2
22:49 46.4 °F 35.4 °F 30.2 in Calm     65.5% 0 in 0 W/m2
22:54 46.4 °F 35.6 °F 30.2 in Calm     66% 0 in 0 W/m2
22:59 46.6 °F 36.3 °F 30.2 in Calm   2.5 mph 67.6% 0 in 0 W/m2
23:04 46.6 °F 37.8 °F 30.2 in Calm   2.5 mph 71.1% 0 in 0 W/m2
23:09 46.6 °F 38.1 °F 30.2 in Calm     72% 0 in 0 W/m2
23:14 46.6 °F 37.9 °F 30.2 in Calm     71.3% 0 in 0 W/m2
23:19 46.2 °F 37.9 °F 30.2 in Calm     72% 0 in 0 W/m2
23:24 46 °F 37.4 °F 30.2 in Calm     71.4% 0 in 0 W/m2
23:29 45.9 °F 36.7 °F 30.2 in SSW 0.7 mph 4.9 mph 69.8% 0 in 0 W/m2
23:34 45.9 °F 36 °F 30.2 in South 0.4 mph 4.9 mph 68.2% 0 in 0 W/m2
23:39 45.5 °F 36 °F 30.2 in Calm     69% 0 in 0 W/m2
23:44 45.3 °F 36.1 °F 30.2 in Calm     69.9% 0 in 0 W/m2
23:49 45.3 °F 36.5 °F 30.2 in Calm     71% 0 in 0 W/m2
23:54 45.3 °F 37 °F 30.2 in Calm     72.4% 0 in 0 W/m2
23:59 45.1 °F 36.7 °F 30.2 in Calm     72.1% 0 in 0 W/m2
Juneau County Weather
Compliments of Weather Underground - 2 mb